sensor_id;sensor_type;location;lat;lon;timestamp;temperature;humidity
33837;DHT22;20140;49.356;8.812;2022-08-11T00:02:48;17.20;99.40
33837;DHT22;20140;49.356;8.812;2022-08-11T00:05:17;17.20;99.80
33837;DHT22;20140;49.356;8.812;2022-08-11T00:07:52;17.10;99.60
33837;DHT22;20140;49.356;8.812;2022-08-11T00:10:24;17.00;99.90
33837;DHT22;20140;49.356;8.812;2022-08-11T00:12:58;17.00;99.90
33837;DHT22;20140;49.356;8.812;2022-08-11T00:15:27;16.90;99.90
33837;DHT22;20140;49.356;8.812;2022-08-11T00:17:58;16.80;99.90
33837;DHT22;20140;49.356;8.812;2022-08-11T00:20:32;16.80;99.90
33837;DHT22;20140;49.356;8.812;2022-08-11T00:23:05;16.80;99.90
33837;DHT22;20140;49.356;8.812;2022-08-11T00:25:40;16.70;99.90
33837;DHT22;20140;49.356;8.812;2022-08-11T00:28:26;16.60;99.90
33837;DHT22;20140;49.356;8.812;2022-08-11T00:30:52;16.70;99.90
33837;DHT22;20140;49.356;8.812;2022-08-11T00:33:22;16.60;99.90
33837;DHT22;20140;49.356;8.812;2022-08-11T00:35:49;16.60;99.90
33837;DHT22;20140;49.356;8.812;2022-08-11T00:38:16;16.60;99.90
33837;DHT22;20140;49.356;8.812;2022-08-11T00:41:17;16.50;99.90
33837;DHT22;20140;49.356;8.812;2022-08-11T00:44:00;16.50;99.90
33837;DHT22;20140;49.356;8.812;2022-08-11T00:46:45;16.60;99.90
33837;DHT22;20140;49.356;8.812;2022-08-11T00:49:45;16.60;99.90
33837;DHT22;20140;49.356;8.812;2022-08-11T00:52:28;16.50;99.90
33837;DHT22;20140;49.356;8.812;2022-08-11T01:00:18;16.20;99.90
33837;DHT22;20140;49.356;8.812;2022-08-11T01:02:55;16.20;99.90
33837;DHT22;20140;49.356;8.812;2022-08-11T01:08:36;16.00;99.90
33837;DHT22;20140;49.356;8.812;2022-08-11T01:11:37;16.00;99.90
33837;DHT22;20140;49.356;8.812;2022-08-11T01:14:45;15.90;99.90
33837;DHT22;20140;49.356;8.812;2022-08-11T01:32:17;15.80;99.90
33837;DHT22;20140;49.356;8.812;2022-08-11T01:37:56;15.70;99.90
33837;DHT22;20140;49.356;8.812;2022-08-11T01:43:01;15.60;99.90
33837;DHT22;20140;49.356;8.812;2022-08-11T01:45:58;15.60;99.90
33837;DHT22;20140;49.356;8.812;2022-08-11T01:48:48;15.60;99.90
33837;DHT22;20140;49.356;8.812;2022-08-11T01:54:23;15.50;99.90
33837;DHT22;20140;49.356;8.812;2022-08-11T01:57:18;15.50;99.90
33837;DHT22;20140;49.356;8.812;2022-08-11T01:59:53;15.40;99.90
33837;DHT22;20140;49.356;8.812;2022-08-11T02:08:48;15.50;99.90
33837;DHT22;20140;49.356;8.812;2022-08-11T02:11:30;15.40;99.90
33837;DHT22;20140;49.356;8.812;2022-08-11T02:20:23;15.40;99.90
33837;DHT22;20140;49.356;8.812;2022-08-11T02:22:47;15.30;99.90
33837;DHT22;20140;49.356;8.812;2022-08-11T02:25:56;15.30;99.90
33837;DHT22;20140;49.356;8.812;2022-08-11T02:28:31;15.30;99.90
33837;DHT22;20140;49.356;8.812;2022-08-11T02:31:06;15.20;99.90
33837;DHT22;20140;49.356;8.812;2022-08-11T02:34:08;15.20;99.90
33837;DHT22;20140;49.356;8.812;2022-08-11T02:37:02;15.10;99.90
33837;DHT22;20140;49.356;8.812;2022-08-11T02:39:46;15.10;99.90
33837;DHT22;20140;49.356;8.812;2022-08-11T02:45:38;15.00;99.90
33837;DHT22;20140;49.356;8.812;2022-08-11T02:57:06;14.90;99.90
33837;DHT22;20140;49.356;8.812;2022-08-11T03:08:10;14.70;99.90
33837;DHT22;20140;49.356;8.812;2022-08-11T03:10:59;14.70;99.90
33837;DHT22;20140;49.356;8.812;2022-08-11T03:16:50;14.70;99.90
33837;DHT22;20140;49.356;8.812;2022-08-11T03:19:36;14.70;99.90
33837;DHT22;20140;49.356;8.812;2022-08-11T03:25:44;14.80;99.90
33837;DHT22;20140;49.356;8.812;2022-08-11T03:31:24;14.90;99.90
33837;DHT22;20140;49.356;8.812;2022-08-11T03:34:03;14.80;99.90
33837;DHT22;20140;49.356;8.812;2022-08-11T03:42:19;14.80;99.90
33837;DHT22;20140;49.356;8.812;2022-08-11T03:50:43;14.90;99.90
33837;DHT22;20140;49.356;8.812;2022-08-11T04:08:19;14.60;99.90
33837;DHT22;20140;49.356;8.812;2022-08-11T04:10:53;14.60;99.90
33837;DHT22;20140;49.356;8.812;2022-08-11T04:13:34;14.80;99.90
33837;DHT22;20140;49.356;8.812;2022-08-11T04:30:29;14.60;99.90
33837;DHT22;20140;49.356;8.812;2022-08-11T04:36:18;14.60;99.90
33837;DHT22;20140;49.356;8.812;2022-08-11T04:39:09;14.50;99.90
33837;DHT22;20140;49.356;8.812;2022-08-11T04:45:37;14.50;99.90
33837;DHT22;20140;49.356;8.812;2022-08-11T04:51:25;14.40;99.90
33837;DHT22;20140;49.356;8.812;2022-08-11T05:09:57;14.80;99.90
33837;DHT22;20140;49.356;8.812;2022-08-11T05:12:42;14.80;99.90
33837;DHT22;20140;49.356;8.812;2022-08-11T05:15:17;14.70;99.90
33837;DHT22;20140;49.356;8.812;2022-08-11T05:18:15;14.80;99.90
33837;DHT22;20140;49.356;8.812;2022-08-11T05:21:05;14.90;99.90
33837;DHT22;20140;49.356;8.812;2022-08-11T05:23:56;14.90;99.90
33837;DHT22;20140;49.356;8.812;2022-08-11T05:26:46;15.00;99.90
33837;DHT22;20140;49.356;8.812;2022-08-11T05:29:42;15.10;99.90
33837;DHT22;20140;49.356;8.812;2022-08-11T05:32:38;15.30;99.90
33837;DHT22;20140;49.356;8.812;2022-08-11T05:35:37;15.40;99.90
33837;DHT22;20140;49.356;8.812;2022-08-11T05:38:09;15.60;99.90
33837;DHT22;20140;49.356;8.812;2022-08-11T05:40:56;15.90;99.90
33837;DHT22;20140;49.356;8.812;2022-08-11T05:43:43;16.20;99.90
33837;DHT22;20140;49.356;8.812;2022-08-11T05:46:28;16.40;99.90
33837;DHT22;20140;49.356;8.812;2022-08-11T05:49:13;16.60;99.90
33837;DHT22;20140;49.356;8.812;2022-08-11T05:51:59;16.70;99.90
33837;DHT22;20140;49.356;8.812;2022-08-11T05:54:45;16.80;99.90
33837;DHT22;20140;49.356;8.812;2022-08-11T05:57:32;16.90;99.90
33837;DHT22;20140;49.356;8.812;2022-08-11T06:00:00;17.00;99.90
33837;DHT22;20140;49.356;8.812;2022-08-11T06:02:27;17.20;99.90
33837;DHT22;20140;49.356;8.812;2022-08-11T06:04:57;17.40;99.90
33837;DHT22;20140;49.356;8.812;2022-08-11T06:07:31;17.50;99.90
33837;DHT22;20140;49.356;8.812;2022-08-11T06:09:58;17.70;99.90
33837;DHT22;20140;49.356;8.812;2022-08-11T06:12:29;17.90;99.90
33837;DHT22;20140;49.356;8.812;2022-08-11T06:15:03;18.10;99.90
33837;DHT22;20140;49.356;8.812;2022-08-11T06:17:31;18.20;99.90
33837;DHT22;20140;49.356;8.812;2022-08-11T06:20:05;18.30;99.90
33837;DHT22;20140;49.356;8.812;2022-08-11T06:22:36;18.40;99.90
33837;DHT22;20140;49.356;8.812;2022-08-11T06:25:03;18.40;99.90
33837;DHT22;20140;49.356;8.812;2022-08-11T06:27:33;18.50;99.90
33837;DHT22;20140;49.356;8.812;2022-08-11T06:30:00;18.60;99.90
33837;DHT22;20140;49.356;8.812;2022-08-11T06:32:31;18.80;99.90
33837;DHT22;20140;49.356;8.812;2022-08-11T06:42:50;19.60;99.90
33837;DHT22;20140;49.356;8.812;2022-08-11T06:48:16;19.80;99.90
33837;DHT22;20140;49.356;8.812;2022-08-11T06:50:51;19.90;99.90
33837;DHT22;20140;49.356;8.812;2022-08-11T06:53:43;20.20;99.40
33837;DHT22;20140;49.356;8.812;2022-08-11T06:56:11;20.40;98.90
33837;DHT22;20140;49.356;8.812;2022-08-11T06:58:58;20.40;98.70
33837;DHT22;20140;49.356;8.812;2022-08-11T07:04:31;20.80;98.10
33837;DHT22;20140;49.356;8.812;2022-08-11T07:13:13;21.10;97.20
33837;DHT22;20140;49.356;8.812;2022-08-11T07:15:58;21.20;96.50
33837;DHT22;20140;49.356;8.812;2022-08-11T07:18:31;21.30;96.90
33837;DHT22;20140;49.356;8.812;2022-08-11T07:21:28;21.40;96.70
33837;DHT22;20140;49.356;8.812;2022-08-11T07:24:17;21.60;96.30
33837;DHT22;20140;49.356;8.812;2022-08-11T07:27:07;21.60;96.20
33837;DHT22;20140;49.356;8.812;2022-08-11T07:29:54;21.60;96.00
33837;DHT22;20140;49.356;8.812;2022-08-11T07:32:28;21.70;95.60
33837;DHT22;20140;49.356;8.812;2022-08-11T07:35:00;21.80;94.80
33837;DHT22;20140;49.356;8.812;2022-08-11T07:37:29;21.70;95.00
33837;DHT22;20140;49.356;8.812;2022-08-11T07:39:58;21.80;95.60
33837;DHT22;20140;49.356;8.812;2022-08-11T07:42:28;22.00;94.80
33837;DHT22;20140;49.356;8.812;2022-08-11T07:44:55;22.10;94.90
33837;DHT22;20140;49.356;8.812;2022-08-11T07:47:41;22.10;94.60
33837;DHT22;20140;49.356;8.812;2022-08-11T07:50:26;22.20;94.20
33837;DHT22;20140;49.356;8.812;2022-08-11T07:53:12;22.40;93.70
33837;DHT22;20140;49.356;8.812;2022-08-11T07:55:38;22.50;93.80
33837;DHT22;20140;49.356;8.812;2022-08-11T07:58:06;22.50;93.40
33837;DHT22;20140;49.356;8.812;2022-08-11T08:00:55;22.40;93.00
33837;DHT22;20140;49.356;8.812;2022-08-11T08:03:40;22.40;93.30
33837;DHT22;20140;49.356;8.812;2022-08-11T08:06:26;22.50;92.90
33837;DHT22;20140;49.356;8.812;2022-08-11T08:09:11;22.60;93.00
33837;DHT22;20140;49.356;8.812;2022-08-11T08:11:59;22.60;92.50
33837;DHT22;20140;49.356;8.812;2022-08-11T08:14:43;22.80;92.50
33837;DHT22;20140;49.356;8.812;2022-08-11T08:17:29;22.90;92.40
33837;DHT22;20140;49.356;8.812;2022-08-11T08:20:16;23.00;92.50
33837;DHT22;20140;49.356;8.812;2022-08-11T08:22:50;23.10;91.50
33837;DHT22;20140;49.356;8.812;2022-08-11T08:25:24;23.30;91.40
33837;DHT22;20140;49.356;8.812;2022-08-11T08:27:51;23.30;91.00
33837;DHT22;20140;49.356;8.812;2022-08-11T08:30:17;23.40;90.50
33837;DHT22;20140;49.356;8.812;2022-08-11T08:33:02;23.50;90.40
33837;DHT22;20140;49.356;8.812;2022-08-11T08:35:28;23.50;90.40
33837;DHT22;20140;49.356;8.812;2022-08-11T08:37:55;23.70;90.10
33837;DHT22;20140;49.356;8.812;2022-08-11T08:40:21;23.80;88.20
33837;DHT22;20140;49.356;8.812;2022-08-11T08:43:04;23.80;88.10
33837;DHT22;20140;49.356;8.812;2022-08-11T08:45:33;24.00;87.70
33837;DHT22;20140;49.356;8.812;2022-08-11T08:48:03;24.10;86.90
33837;DHT22;20140;49.356;8.812;2022-08-11T08:50:33;24.10;86.30
33837;DHT22;20140;49.356;8.812;2022-08-11T08:53:21;24.30;85.80
33837;DHT22;20140;49.356;8.812;2022-08-11T08:55:48;24.50;86.40
33837;DHT22;20140;49.356;8.812;2022-08-11T08:58:18;24.50;86.10
33837;DHT22;20140;49.356;8.812;2022-08-11T09:00:46;24.60;85.20
33837;DHT22;20140;49.356;8.812;2022-08-11T09:03:15;24.70;84.80
33837;DHT22;20140;49.356;8.812;2022-08-11T09:05:41;24.90;84.10
33837;DHT22;20140;49.356;8.812;2022-08-11T09:08:07;24.80;83.10
33837;DHT22;20140;49.356;8.812;2022-08-11T09:10:34;24.80;83.00
33837;DHT22;20140;49.356;8.812;2022-08-11T09:13:00;25.00;81.90
33837;DHT22;20140;49.356;8.812;2022-08-11T09:15:31;25.10;80.90
33837;DHT22;20140;49.356;8.812;2022-08-11T09:18:00;25.20;80.50
33837;DHT22;20140;49.356;8.812;2022-08-11T09:20:33;25.30;78.50
33837;DHT22;20140;49.356;8.812;2022-08-11T09:23:02;25.40;77.10
33837;DHT22;20140;49.356;8.812;2022-08-11T09:25:50;25.50;76.40
33837;DHT22;20140;49.356;8.812;2022-08-11T09:28:36;25.50;76.20
33837;DHT22;20140;49.356;8.812;2022-08-11T09:31:02;25.60;76.80
33837;DHT22;20140;49.356;8.812;2022-08-11T09:33:30;25.80;75.00
33837;DHT22;20140;49.356;8.812;2022-08-11T09:35:57;25.90;74.60
33837;DHT22;20140;49.356;8.812;2022-08-11T09:38:44;25.90;74.30
33837;DHT22;20140;49.356;8.812;2022-08-11T09:41:31;26.00;71.30
33837;DHT22;20140;49.356;8.812;2022-08-11T09:43:57;26.00;69.80
33837;DHT22;20140;49.356;8.812;2022-08-11T09:46:43;26.10;70.30
33837;DHT22;20140;49.356;8.812;2022-08-11T09:49:09;26.20;69.70
33837;DHT22;20140;49.356;8.812;2022-08-11T09:51:36;26.40;70.30
33837;DHT22;20140;49.356;8.812;2022-08-11T09:54:03;26.50;68.00
33837;DHT22;20140;49.356;8.812;2022-08-11T09:56:32;26.50;68.00
33837;DHT22;20140;49.356;8.812;2022-08-11T09:59:19;26.70;66.90
33837;DHT22;20140;49.356;8.812;2022-08-11T10:01:47;26.70;65.70
33837;DHT22;20140;49.356;8.812;2022-08-11T10:04:16;26.60;67.10
33837;DHT22;20140;49.356;8.812;2022-08-11T10:06:49;26.70;65.60
33837;DHT22;20140;49.356;8.812;2022-08-11T10:09:39;26.90;62.50
33837;DHT22;20140;49.356;8.812;2022-08-11T10:12:13;27.10;60.60
33837;DHT22;20140;49.356;8.812;2022-08-11T10:14:43;27.30;60.80
33837;DHT22;20140;49.356;8.812;2022-08-11T10:17:31;27.30;60.30
33837;DHT22;20140;49.356;8.812;2022-08-11T10:19:58;27.40;60.80
33837;DHT22;20140;49.356;8.812;2022-08-11T10:22:25;27.30;64.50
33837;DHT22;20140;49.356;8.812;2022-08-11T10:25:10;27.30;62.60
33837;DHT22;20140;49.356;8.812;2022-08-11T10:27:56;27.40;61.30
33837;DHT22;20140;49.356;8.812;2022-08-11T10:30:25;27.40;60.40
33837;DHT22;20140;49.356;8.812;2022-08-11T10:33:13;27.50;60.20
33837;DHT22;20140;49.356;8.812;2022-08-11T10:35:59;27.60;60.50
33837;DHT22;20140;49.356;8.812;2022-08-11T10:38:26;27.60;59.70
33837;DHT22;20140;49.356;8.812;2022-08-11T10:40:54;27.70;59.80
33837;DHT22;20140;49.356;8.812;2022-08-11T10:43:39;27.60;60.80
33837;DHT22;20140;49.356;8.812;2022-08-11T10:46:08;27.60;59.40
33837;DHT22;20140;49.356;8.812;2022-08-11T10:48:55;27.60;59.40
33837;DHT22;20140;49.356;8.812;2022-08-11T10:51:23;27.80;61.90
33837;DHT22;20140;49.356;8.812;2022-08-11T10:54:08;27.80;60.00
33837;DHT22;20140;49.356;8.812;2022-08-11T10:56:53;27.80;59.70
33837;DHT22;20140;49.356;8.812;2022-08-11T10:59:38;28.00;58.20
33837;DHT22;20140;49.356;8.812;2022-08-11T11:02:08;28.10;56.30
33837;DHT22;20140;49.356;8.812;2022-08-11T11:07:30;28.50;55.60
33837;DHT22;20140;49.356;8.812;2022-08-11T11:10:04;28.50;54.60
33837;DHT22;20140;49.356;8.812;2022-08-11T11:12:44;28.70;55.00
33837;DHT22;20140;49.356;8.812;2022-08-11T11:15:31;28.90;53.50
33837;DHT22;20140;49.356;8.812;2022-08-11T11:18:23;29.10;52.80
33837;DHT22;20140;49.356;8.812;2022-08-11T11:20:55;29.20;51.60
33837;DHT22;20140;49.356;8.812;2022-08-11T11:23:31;29.30;50.40
33837;DHT22;20140;49.356;8.812;2022-08-11T11:37:32;29.50;50.30
33837;DHT22;20140;49.356;8.812;2022-08-11T11:40:00;29.80;50.60
33837;DHT22;20140;49.356;8.812;2022-08-11T11:42:27;29.70;49.10
33837;DHT22;20140;49.356;8.812;2022-08-11T11:44:54;29.60;49.20
33837;DHT22;20140;49.356;8.812;2022-08-11T11:47:20;29.60;49.10
33837;DHT22;20140;49.356;8.812;2022-08-11T11:49:48;29.80;49.00
33837;DHT22;20140;49.356;8.812;2022-08-11T11:52:15;29.90;49.50
33837;DHT22;20140;49.356;8.812;2022-08-11T11:54:44;30.10;49.00
33837;DHT22;20140;49.356;8.812;2022-08-11T11:57:16;30.20;48.80
33837;DHT22;20140;49.356;8.812;2022-08-11T12:00:02;30.50;48.60
33837;DHT22;20140;49.356;8.812;2022-08-11T12:02:48;30.50;47.90
33837;DHT22;20140;49.356;8.812;2022-08-11T12:05:17;30.40;48.90
33837;DHT22;20140;49.356;8.812;2022-08-11T12:07:43;30.30;47.70
33837;DHT22;20140;49.356;8.812;2022-08-11T12:10:29;30.50;48.00
33837;DHT22;20140;49.356;8.812;2022-08-11T12:12:58;30.60;47.60
33837;DHT22;20140;49.356;8.812;2022-08-11T12:15:45;30.50;47.60
33837;DHT22;20140;49.356;8.812;2022-08-11T12:18:11;30.70;48.00
33837;DHT22;20140;49.356;8.812;2022-08-11T12:20:37;30.70;47.50
33837;DHT22;20140;49.356;8.812;2022-08-11T12:23:06;30.90;47.20
33837;DHT22;20140;49.356;8.812;2022-08-11T12:25:50;31.10;47.70
33837;DHT22;20140;49.356;8.812;2022-08-11T12:28:34;31.30;46.60
33837;DHT22;20140;49.356;8.812;2022-08-11T12:31:00;31.30;45.60
33837;DHT22;20140;49.356;8.812;2022-08-11T12:33:27;31.30;46.00
33837;DHT22;20140;49.356;8.812;2022-08-11T12:35:57;31.20;45.80
33837;DHT22;20140;49.356;8.812;2022-08-11T12:38:23;31.30;45.80
33837;DHT22;20140;49.356;8.812;2022-08-11T12:40:51;31.60;45.50
33837;DHT22;20140;49.356;8.812;2022-08-11T12:43:35;31.40;44.60
33837;DHT22;20140;49.356;8.812;2022-08-11T12:46:40;31.40;44.50
33837;DHT22;20140;49.356;8.812;2022-08-11T12:49:13;31.70;45.40
33837;DHT22;20140;49.356;8.812;2022-08-11T12:52:04;32.20;45.40
33837;DHT22;20140;49.356;8.812;2022-08-11T13:00:13;32.40;42.50
33837;DHT22;20140;49.356;8.812;2022-08-11T13:02:58;32.50;43.30
33837;DHT22;20140;49.356;8.812;2022-08-11T13:05:43;32.50;42.20
33837;DHT22;20140;49.356;8.812;2022-08-11T13:08:10;32.50;42.20
33837;DHT22;20140;49.356;8.812;2022-08-11T13:10:36;32.40;42.80
33837;DHT22;20140;49.356;8.812;2022-08-11T13:13:23;32.70;42.70
33837;DHT22;20140;49.356;8.812;2022-08-11T13:15:49;32.60;41.20
33837;DHT22;20140;49.356;8.812;2022-08-11T13:18:18;33.00;42.30
33837;DHT22;20140;49.356;8.812;2022-08-11T13:20:48;33.50;41.80
33837;DHT22;20140;49.356;8.812;2022-08-11T13:23:16;32.90;40.50
33837;DHT22;20140;49.356;8.812;2022-08-11T13:25:42;32.60;42.20
33837;DHT22;20140;49.356;8.812;2022-08-11T13:28:08;33.10;42.40
33837;DHT22;20140;49.356;8.812;2022-08-11T13:30:35;34.20;41.70
33837;DHT22;20140;49.356;8.812;2022-08-11T13:33:19;34.30;40.80
33837;DHT22;20140;49.356;8.812;2022-08-11T13:35:49;35.10;39.90
33837;DHT22;20140;49.356;8.812;2022-08-11T13:38:17;35.40;39.60
33837;DHT22;20140;49.356;8.812;2022-08-11T13:40:44;34.90;39.10
33837;DHT22;20140;49.356;8.812;2022-08-11T13:43:12;35.30;38.50
33837;DHT22;20140;49.356;8.812;2022-08-11T13:45:38;35.70;38.70
33837;DHT22;20140;49.356;8.812;2022-08-11T13:48:08;35.40;38.30
33837;DHT22;20140;49.356;8.812;2022-08-11T13:50:35;35.40;37.90
33837;DHT22;20140;49.356;8.812;2022-08-11T13:53:21;36.50;37.00
33837;DHT22;20140;49.356;8.812;2022-08-11T13:55:49;36.20;36.00
33837;DHT22;20140;49.356;8.812;2022-08-11T13:58:15;36.30;36.70
33837;DHT22;20140;49.356;8.812;2022-08-11T14:00:46;36.10;37.00
33837;DHT22;20140;49.356;8.812;2022-08-11T14:03:13;36.60;37.30
33837;DHT22;20140;49.356;8.812;2022-08-11T14:05:44;37.30;36.30
33837;DHT22;20140;49.356;8.812;2022-08-11T14:08:14;37.80;35.20
33837;DHT22;20140;49.356;8.812;2022-08-11T14:10:43;37.80;35.30
33837;DHT22;20140;49.356;8.812;2022-08-11T14:13:13;38.40;34.40
33837;DHT22;20140;49.356;8.812;2022-08-11T14:16:02;37.30;34.50
33837;DHT22;20140;49.356;8.812;2022-08-11T14:18:30;35.70;34.80
33837;DHT22;20140;49.356;8.812;2022-08-11T14:20:59;34.20;36.50
33837;DHT22;20140;49.356;8.812;2022-08-11T14:23:49;33.80;37.50
33837;DHT22;20140;49.356;8.812;2022-08-11T14:26:20;35.50;36.50
33837;DHT22;20140;49.356;8.812;2022-08-11T14:29:01;36.30;36.10
33837;DHT22;20140;49.356;8.812;2022-08-11T14:31:29;37.00;34.60
33837;DHT22;20140;49.356;8.812;2022-08-11T14:34:01;37.50;35.00
33837;DHT22;20140;49.356;8.812;2022-08-11T14:36:36;36.50;34.80
33837;DHT22;20140;49.356;8.812;2022-08-11T14:39:06;35.50;34.50
33837;DHT22;20140;49.356;8.812;2022-08-11T14:41:33;35.50;35.80
33837;DHT22;20140;49.356;8.812;2022-08-11T14:44:17;35.50;35.60
33837;DHT22;20140;49.356;8.812;2022-08-11T14:47:03;36.40;35.80
33837;DHT22;20140;49.356;8.812;2022-08-11T14:49:30;37.00;34.90
33837;DHT22;20140;49.356;8.812;2022-08-11T14:51:59;37.60;34.70
33837;DHT22;20140;49.356;8.812;2022-08-11T14:54:29;37.90;34.30
33837;DHT22;20140;49.356;8.812;2022-08-11T14:57:17;37.40;33.30
33837;DHT22;20140;49.356;8.812;2022-08-11T14:59:45;37.10;34.60
33837;DHT22;20140;49.356;8.812;2022-08-11T15:02:13;37.30;33.80
33837;DHT22;20140;49.356;8.812;2022-08-11T15:05:00;36.40;34.30
33837;DHT22;20140;49.356;8.812;2022-08-11T15:07:31;36.20;35.00
33837;DHT22;20140;49.356;8.812;2022-08-11T15:09:58;36.90;34.20
33837;DHT22;20140;49.356;8.812;2022-08-11T15:12:25;37.00;34.40
33837;DHT22;20140;49.356;8.812;2022-08-11T15:14:51;37.30;33.20
33837;DHT22;20140;49.356;8.812;2022-08-11T15:17:35;36.50;33.60
33837;DHT22;20140;49.356;8.812;2022-08-11T15:20:06;36.90;33.10
33837;DHT22;20140;49.356;8.812;2022-08-11T15:22:51;37.60;33.10
33837;DHT22;20140;49.356;8.812;2022-08-11T15:25:35;37.70;32.20
33837;DHT22;20140;49.356;8.812;2022-08-11T15:28:02;37.40;33.20
33837;DHT22;20140;49.356;8.812;2022-08-11T15:30:53;37.20;33.30
33837;DHT22;20140;49.356;8.812;2022-08-11T15:33:39;37.10;33.20
33837;DHT22;20140;49.356;8.812;2022-08-11T15:36:24;36.60;33.60
33837;DHT22;20140;49.356;8.812;2022-08-11T15:40:10;34.60;34.30
33837;DHT22;20140;49.356;8.812;2022-08-11T15:42:29;36.00;34.40
33837;DHT22;20140;49.356;8.812;2022-08-11T15:45:16;36.30;33.40
33837;DHT22;20140;49.356;8.812;2022-08-11T15:48:07;36.90;33.90
33837;DHT22;20140;49.356;8.812;2022-08-11T15:50:39;37.30;33.50
33837;DHT22;20140;49.356;8.812;2022-08-11T15:53:11;37.30;33.20
33837;DHT22;20140;49.356;8.812;2022-08-11T15:55:42;37.40;33.20
33837;DHT22;20140;49.356;8.812;2022-08-11T15:58:11;37.50;32.80
33837;DHT22;20140;49.356;8.812;2022-08-11T16:00:55;37.30;33.30
33837;DHT22;20140;49.356;8.812;2022-08-11T16:03:51;36.40;32.50
33837;DHT22;20140;49.356;8.812;2022-08-11T16:11:51;35.70;34.00
33837;DHT22;20140;49.356;8.812;2022-08-11T16:14:19;36.20;34.40
33837;DHT22;20140;49.356;8.812;2022-08-11T16:17:09;36.10;34.00
33837;DHT22;20140;49.356;8.812;2022-08-11T16:19:36;36.20;34.20
33837;DHT22;20140;49.356;8.812;2022-08-11T16:22:07;36.00;33.50
33837;DHT22;20140;49.356;8.812;2022-08-11T16:24:39;36.00;33.40
33837;DHT22;20140;49.356;8.812;2022-08-11T16:27:09;35.60;34.00
33837;DHT22;20140;49.356;8.812;2022-08-11T16:29:41;35.60;34.70
33837;DHT22;20140;49.356;8.812;2022-08-11T16:32:11;35.10;34.70
33837;DHT22;20140;49.356;8.812;2022-08-11T16:34:48;34.70;35.40
33837;DHT22;20140;49.356;8.812;2022-08-11T16:37:34;35.00;35.10
33837;DHT22;20140;49.356;8.812;2022-08-11T16:40:20;34.50;36.00
33837;DHT22;20140;49.356;8.812;2022-08-11T16:42:48;34.90;35.50
33837;DHT22;20140;49.356;8.812;2022-08-11T16:45:33;35.10;34.80
33837;DHT22;20140;49.356;8.812;2022-08-11T16:48:19;34.60;34.40
33837;DHT22;20140;49.356;8.812;2022-08-11T16:50:45;34.30;36.00
33837;DHT22;20140;49.356;8.812;2022-08-11T16:53:11;34.70;35.50
33837;DHT22;20140;49.356;8.812;2022-08-11T16:55:37;34.70;34.20
33837;DHT22;20140;49.356;8.812;2022-08-11T16:58:04;34.20;34.40
33837;DHT22;20140;49.356;8.812;2022-08-11T17:00:50;34.40;35.40
33837;DHT22;20140;49.356;8.812;2022-08-11T17:03:17;34.70;35.00
33837;DHT22;20140;49.356;8.812;2022-08-11T17:06:03;34.70;35.00
33837;DHT22;20140;49.356;8.812;2022-08-11T17:08:50;34.80;35.20
33837;DHT22;20140;49.356;8.812;2022-08-11T17:11:39;34.50;34.90
33837;DHT22;20140;49.356;8.812;2022-08-11T17:14:30;34.10;34.90
33837;DHT22;20140;49.356;8.812;2022-08-11T17:16:58;34.40;35.40
33837;DHT22;20140;49.356;8.812;2022-08-11T17:19:27;34.30;35.80
33837;DHT22;20140;49.356;8.812;2022-08-11T17:21:56;34.00;35.10
33837;DHT22;20140;49.356;8.812;2022-08-11T17:24:43;33.90;35.90
33837;DHT22;20140;49.356;8.812;2022-08-11T17:27:12;33.80;36.20
33837;DHT22;20140;49.356;8.812;2022-08-11T17:29:50;34.10;36.80
33837;DHT22;20140;49.356;8.812;2022-08-11T17:32:18;33.70;35.90
33837;DHT22;20140;49.356;8.812;2022-08-11T17:35:08;33.80;37.10
33837;DHT22;20140;49.356;8.812;2022-08-11T17:38:01;33.90;37.30
33837;DHT22;20140;49.356;8.812;2022-08-11T17:40:29;33.70;37.20
33837;DHT22;20140;49.356;8.812;2022-08-11T17:42:56;33.70;37.50
33837;DHT22;20140;49.356;8.812;2022-08-11T17:45:42;33.40;37.90
33837;DHT22;20140;49.356;8.812;2022-08-11T17:48:29;33.30;37.90
33837;DHT22;20140;49.356;8.812;2022-08-11T17:50:57;32.90;38.60
33837;DHT22;20140;49.356;8.812;2022-08-11T17:53:25;32.60;38.00
33837;DHT22;20140;49.356;8.812;2022-08-11T17:56:11;32.40;39.70
33837;DHT22;20140;49.356;8.812;2022-08-11T17:58:57;32.20;40.90
33837;DHT22;20140;49.356;8.812;2022-08-11T18:01:42;32.00;41.40
33837;DHT22;20140;49.356;8.812;2022-08-11T18:04:12;31.80;42.70
33837;DHT22;20140;49.356;8.812;2022-08-11T18:06:39;31.80;42.80
33837;DHT22;20140;49.356;8.812;2022-08-11T18:09:13;31.60;42.60
33837;DHT22;20140;49.356;8.812;2022-08-11T18:11:59;31.50;43.20
33837;DHT22;20140;49.356;8.812;2022-08-11T18:14:47;31.20;44.30
33837;DHT22;20140;49.356;8.812;2022-08-11T18:17:32;30.90;45.50
33837;DHT22;20140;49.356;8.812;2022-08-11T18:20:18;30.60;46.70
33837;DHT22;20140;49.356;8.812;2022-08-11T18:23:06;30.20;47.10
33837;DHT22;20140;49.356;8.812;2022-08-11T18:25:54;30.00;45.40
33837;DHT22;20140;49.356;8.812;2022-08-11T18:28:45;29.70;45.90
33837;DHT22;20140;49.356;8.812;2022-08-11T18:31:35;29.40;49.40
33837;DHT22;20140;49.356;8.812;2022-08-11T18:34:27;28.90;49.70
33837;DHT22;20140;49.356;8.812;2022-08-11T18:37:17;28.50;50.60
33837;DHT22;20140;49.356;8.812;2022-08-11T18:40:06;28.20;51.00
33837;DHT22;20140;49.356;8.812;2022-08-11T18:42:52;27.60;51.60
33837;DHT22;20140;49.356;8.812;2022-08-11T18:45:39;27.10;53.40
33837;DHT22;20140;49.356;8.812;2022-08-11T18:48:26;26.90;53.10
33837;DHT22;20140;49.356;8.812;2022-08-11T18:51:12;26.70;53.40
33837;DHT22;20140;49.356;8.812;2022-08-11T18:54:01;26.60;53.20
33837;DHT22;20140;49.356;8.812;2022-08-11T18:56:47;26.40;52.10
33837;DHT22;20140;49.356;8.812;2022-08-11T18:59:35;26.10;52.90
33837;DHT22;20140;49.356;8.812;2022-08-11T19:02:22;25.90;54.20
33837;DHT22;20140;49.356;8.812;2022-08-11T19:05:11;25.50;54.40
33837;DHT22;20140;49.356;8.812;2022-08-11T19:07:57;25.40;53.50
33837;DHT22;20140;49.356;8.812;2022-08-11T19:10:44;25.20;53.80
33837;DHT22;20140;49.356;8.812;2022-08-11T19:13:31;25.00;54.50
33837;DHT22;20140;49.356;8.812;2022-08-11T19:16:17;24.90;55.00
33837;DHT22;20140;49.356;8.812;2022-08-11T19:19:03;24.70;56.10
33837;DHT22;20140;49.356;8.812;2022-08-11T19:21:49;24.40;55.60
33837;DHT22;20140;49.356;8.812;2022-08-11T19:24:36;24.20;56.20
33837;DHT22;20140;49.356;8.812;2022-08-11T19:27:23;23.90;56.60
33837;DHT22;20140;49.356;8.812;2022-08-11T19:30:07;23.80;58.20
33837;DHT22;20140;49.356;8.812;2022-08-11T19:32:52;23.70;58.40
33837;DHT22;20140;49.356;8.812;2022-08-11T19:35:38;23.50;58.50
33837;DHT22;20140;49.356;8.812;2022-08-11T19:38:22;23.40;58.40
33837;DHT22;20140;49.356;8.812;2022-08-11T19:41:07;23.10;59.40
33837;DHT22;20140;49.356;8.812;2022-08-11T19:43:52;23.10;60.30